sensor_id;sensor_type;location;lat;lon;timestamp;P1;durP1;ratioP1;P2;durP2;ratioP2
11267;SDS011;49397;47.474;9.416;2023-02-15T00:01:40;43.77;;;12.03;;
11267;SDS011;49397;47.474;9.416;2023-02-15T00:04:07;21.83;;;11.00;;
11267;SDS011;49397;47.474;9.416;2023-02-15T00:06:34;59.80;;;13.07;;
11267;SDS011;49397;47.474;9.416;2023-02-15T00:09:00;31.63;;;12.13;;
11267;SDS011;49397;47.474;9.416;2023-02-15T00:11:27;23.43;;;10.13;;
11267;SDS011;49397;47.474;9.416;2023-02-15T00:14:10;28.73;;;11.67;;
11267;SDS011;49397;47.474;9.416;2023-02-15T00:16:38;22.63;;;10.40;;
11267;SDS011;49397;47.474;9.416;2023-02-15T00:19:05;46.00;;;11.87;;
11267;SDS011;49397;47.474;9.416;2023-02-15T00:21:32;35.63;;;11.57;;
11267;SDS011;49397;47.474;9.416;2023-02-15T00:23:59;36.37;;;11.30;;
11267;SDS011;49397;47.474;9.416;2023-02-15T00:26:26;20.93;;;11.30;;
11267;SDS011;49397;47.474;9.416;2023-02-15T00:28:52;34.40;;;12.13;;
11267;SDS011;49397;47.474;9.416;2023-02-15T00:31:18;31.73;;;11.20;;
11267;SDS011;49397;47.474;9.416;2023-02-15T00:33:44;36.00;;;11.27;;
11267;SDS011;49397;47.474;9.416;2023-02-15T00:36:10;61.40;;;13.27;;
11267;SDS011;49397;47.474;9.416;2023-02-15T00:38:36;59.63;;;13.07;;
11267;SDS011;49397;47.474;9.416;2023-02-15T00:41:02;53.93;;;12.87;;
11267;SDS011;49397;47.474;9.416;2023-02-15T00:43:30;27.77;;;10.93;;
11267;SDS011;49397;47.474;9.416;2023-02-15T00:45:57;31.93;;;11.60;;
11267;SDS011;49397;47.474;9.416;2023-02-15T00:48:23;20.93;;;10.43;;
11267;SDS011;49397;47.474;9.416;2023-02-15T00:50:49;21.33;;;10.73;;
11267;SDS011;49397;47.474;9.416;2023-02-15T00:53:16;21.13;;;9.57;;
11267;SDS011;49397;47.474;9.416;2023-02-15T00:55:42;48.00;;;11.70;;
11267;SDS011;49397;47.474;9.416;2023-02-15T00:58:08;23.90;;;10.40;;
11267;SDS011;49397;47.474;9.416;2023-02-15T01:00:35;30.03;;;11.60;;
11267;SDS011;49397;47.474;9.416;2023-02-15T01:03:00;30.70;;;10.70;;
11267;SDS011;49397;47.474;9.416;2023-02-15T01:05:26;26.47;;;10.70;;
11267;SDS011;49397;47.474;9.416;2023-02-15T01:07:51;21.33;;;9.87;;
11267;SDS011;49397;47.474;9.416;2023-02-15T01:10:17;20.30;;;9.60;;
11267;SDS011;49397;47.474;9.416;2023-02-15T01:12:43;25.07;;;9.70;;
11267;SDS011;49397;47.474;9.416;2023-02-15T01:15:09;38.00;;;9.87;;
11267;SDS011;49397;47.474;9.416;2023-02-15T01:17:34;24.80;;;11.33;;
11267;SDS011;49397;47.474;9.416;2023-02-15T01:20:00;33.33;;;10.53;;
11267;SDS011;49397;47.474;9.416;2023-02-15T01:22:26;30.10;;;10.40;;
11267;SDS011;49397;47.474;9.416;2023-02-15T01:24:51;15.87;;;8.63;;
11267;SDS011;49397;47.474;9.416;2023-02-15T01:27:17;19.03;;;11.23;;
11267;SDS011;49397;47.474;9.416;2023-02-15T01:29:43;35.27;;;11.27;;
11267;SDS011;49397;47.474;9.416;2023-02-15T01:32:08;21.47;;;11.40;;
11267;SDS011;49397;47.474;9.416;2023-02-15T01:34:34;25.03;;;10.60;;
11267;SDS011;49397;47.474;9.416;2023-02-15T01:37:00;19.93;;;10.63;;
11267;SDS011;49397;47.474;9.416;2023-02-15T01:39:25;20.17;;;11.67;;
11267;SDS011;49397;47.474;9.416;2023-02-15T01:41:51;20.80;;;11.20;;
11267;SDS011;49397;47.474;9.416;2023-02-15T01:47:20;18.07;;;9.80;;
11267;SDS011;49397;47.474;9.416;2023-02-15T01:49:51;17.37;;;10.23;;
11267;SDS011;49397;47.474;9.416;2023-02-15T01:52:27;17.50;;;9.83;;
11267;SDS011;49397;47.474;9.416;2023-02-15T01:54:54;21.50;;;10.47;;
11267;SDS011;49397;47.474;9.416;2023-02-15T01:57:20;24.27;;;10.33;;
11267;SDS011;49397;47.474;9.416;2023-02-15T01:59:50;19.50;;;9.50;;
11267;SDS011;49397;47.474;9.416;2023-02-15T02:02:21;32.77;;;11.03;;
11267;SDS011;49397;47.474;9.416;2023-02-15T02:04:50;22.40;;;9.77;;
11267;SDS011;49397;47.474;9.416;2023-02-15T02:07:21;21.83;;;10.87;;
11267;SDS011;49397;47.474;9.416;2023-02-15T02:09:49;21.03;;;10.60;;
11267;SDS011;49397;47.474;9.416;2023-02-15T02:12:15;21.13;;;10.57;;
11267;SDS011;49397;47.474;9.416;2023-02-15T02:14:42;21.13;;;9.77;;
11267;SDS011;49397;47.474;9.416;2023-02-15T02:19:57;27.43;;;10.97;;
11267;SDS011;49397;47.474;9.416;2023-02-15T02:23:07;21.80;;;10.80;;
11267;SDS011;49397;47.474;9.416;2023-02-15T02:38:03;31.70;;;11.40;;
11267;SDS011;49397;47.474;9.416;2023-02-15T02:40:19;23.30;;;9.57;;
11267;SDS011;49397;47.474;9.416;2023-02-15T02:43:01;17.27;;;9.30;;
11267;SDS011;49397;47.474;9.416;2023-02-15T02:45:59;19.37;;;9.30;;
11267;SDS011;49397;47.474;9.416;2023-02-15T02:48:30;16.43;;;9.40;;
11267;SDS011;49397;47.474;9.416;2023-02-15T02:50:58;16.90;;;9.37;;
11267;SDS011;49397;47.474;9.416;2023-02-15T02:53:25;18.57;;;10.33;;
11267;SDS011;49397;47.474;9.416;2023-02-15T02:55:53;17.03;;;9.10;;
11267;SDS011;49397;47.474;9.416;2023-02-15T03:00:55;15.50;;;9.33;;
11267;SDS011;49397;47.474;9.416;2023-02-15T03:03:44;16.63;;;9.43;;
11267;SDS011;49397;47.474;9.416;2023-02-15T03:06:24;14.57;;;8.50;;
11267;SDS011;49397;47.474;9.416;2023-02-15T03:09:01;16.60;;;8.80;;
11267;SDS011;49397;47.474;9.416;2023-02-15T03:11:33;15.53;;;9.03;;
11267;SDS011;49397;47.474;9.416;2023-02-15T03:13:59;16.00;;;9.20;;
11267;SDS011;49397;47.474;9.416;2023-02-15T03:16:24;16.73;;;9.37;;
11267;SDS011;49397;47.474;9.416;2023-02-15T03:21:27;18.33;;;9.93;;
11267;SDS011;49397;47.474;9.416;2023-02-15T03:24:10;16.50;;;10.07;;
11267;SDS011;49397;47.474;9.416;2023-02-15T03:26:38;19.37;;;10.13;;
11267;SDS011;49397;47.474;9.416;2023-02-15T03:29:05;20.33;;;10.67;;
11267;SDS011;49397;47.474;9.416;2023-02-15T03:31:33;21.47;;;9.87;;
11267;SDS011;49397;47.474;9.416;2023-02-15T03:34:03;16.83;;;10.20;;
11267;SDS011;49397;47.474;9.416;2023-02-15T03:36:36;18.03;;;9.97;;
11267;SDS011;49397;47.474;9.416;2023-02-15T03:39:20;12.57;;;8.00;;
11267;SDS011;49397;47.474;9.416;2023-02-15T03:47:43;17.93;;;9.93;;
11267;SDS011;49397;47.474;9.416;2023-02-15T03:50:18;16.37;;;9.17;;
11267;SDS011;49397;47.474;9.416;2023-02-15T03:53:08;19.33;;;9.27;;
11267;SDS011;49397;47.474;9.416;2023-02-15T03:55:37;17.43;;;9.73;;
11267;SDS011;49397;47.474;9.416;2023-02-15T03:58:03;19.13;;;9.70;;
11267;SDS011;49397;47.474;9.416;2023-02-15T04:00:49;18.87;;;10.77;;
11267;SDS011;49397;47.474;9.416;2023-02-15T04:03:59;17.53;;;8.77;;
11267;SDS011;49397;47.474;9.416;2023-02-15T04:06:31;35.53;;;9.47;;
11267;SDS011;49397;47.474;9.416;2023-02-15T04:08:57;28.63;;;10.10;;
11267;SDS011;49397;47.474;9.416;2023-02-15T04:11:41;16.97;;;10.10;;
11267;SDS011;49397;47.474;9.416;2023-02-15T04:14:06;21.60;;;10.30;;
11267;SDS011;49397;47.474;9.416;2023-02-15T04:16:50;16.93;;;9.53;;
11267;SDS011;49397;47.474;9.416;2023-02-15T04:19:16;17.03;;;8.97;;
11267;SDS011;49397;47.474;9.416;2023-02-15T04:22:00;15.10;;;9.33;;
11267;SDS011;49397;47.474;9.416;2023-02-15T04:24:44;13.13;;;8.07;;
11267;SDS011;49397;47.474;9.416;2023-02-15T04:27:28;12.60;;;7.90;;
11267;SDS011;49397;47.474;9.416;2023-02-15T04:29:54;15.53;;;9.43;;
11267;SDS011;49397;47.474;9.416;2023-02-15T04:32:20;18.03;;;9.90;;
11267;SDS011;49397;47.474;9.416;2023-02-15T04:34:45;17.07;;;9.73;;
11267;SDS011;49397;47.474;9.416;2023-02-15T04:37:10;15.93;;;9.80;;
11267;SDS011;49397;47.474;9.416;2023-02-15T04:39:36;13.80;;;9.07;;
11267;SDS011;49397;47.474;9.416;2023-02-15T04:42:01;16.20;;;9.00;;
11267;SDS011;49397;47.474;9.416;2023-02-15T04:44:27;20.30;;;11.23;;
11267;SDS011;49397;47.474;9.416;2023-02-15T04:46:52;17.40;;;10.33;;
11267;SDS011;49397;47.474;9.416;2023-02-15T04:49:18;18.27;;;9.97;;
11267;SDS011;49397;47.474;9.416;2023-02-15T04:51:43;18.23;;;9.60;;
11267;SDS011;49397;47.474;9.416;2023-02-15T04:54:09;17.30;;;9.40;;
11267;SDS011;49397;47.474;9.416;2023-02-15T04:56:34;17.07;;;9.50;;
11267;SDS011;49397;47.474;9.416;2023-02-15T04:59:02;17.63;;;9.73;;
11267;SDS011;49397;47.474;9.416;2023-02-15T05:01:28;17.37;;;9.60;;
11267;SDS011;49397;47.474;9.416;2023-02-15T05:03:54;17.90;;;10.37;;
11267;SDS011;49397;47.474;9.416;2023-02-15T05:06:19;24.47;;;9.53;;
11267;SDS011;49397;47.474;9.416;2023-02-15T05:08:45;43.83;;;9.10;;
11267;SDS011;49397;47.474;9.416;2023-02-15T05:11:10;14.60;;;8.67;;
11267;SDS011;49397;47.474;9.416;2023-02-15T05:13:36;19.10;;;9.30;;
11267;SDS011;49397;47.474;9.416;2023-02-15T05:16:01;14.63;;;9.23;;
11267;SDS011;49397;47.474;9.416;2023-02-15T05:18:27;16.57;;;9.90;;
11267;SDS011;49397;47.474;9.416;2023-02-15T05:20:52;17.60;;;9.97;;
11267;SDS011;49397;47.474;9.416;2023-02-15T05:23:18;17.90;;;9.63;;
11267;SDS011;49397;47.474;9.416;2023-02-15T05:25:47;14.80;;;9.63;;
11267;SDS011;49397;47.474;9.416;2023-02-15T05:28:32;14.67;;;8.90;;
11267;SDS011;49397;47.474;9.416;2023-02-15T05:31:14;11.10;;;7.13;;
11267;SDS011;49397;47.474;9.416;2023-02-15T05:33:43;12.07;;;7.47;;
11267;SDS011;49397;47.474;9.416;2023-02-15T05:36:10;11.80;;;7.77;;
11267;SDS011;49397;47.474;9.416;2023-02-15T05:38:36;12.73;;;8.03;;
11267;SDS011;49397;47.474;9.416;2023-02-15T05:41:03;14.97;;;8.77;;
11267;SDS011;49397;47.474;9.416;2023-02-15T05:43:29;14.50;;;8.23;;
11267;SDS011;49397;47.474;9.416;2023-02-15T05:45:56;13.50;;;8.00;;
11267;SDS011;49397;47.474;9.416;2023-02-15T05:48:22;14.17;;;8.37;;
11267;SDS011;49397;47.474;9.416;2023-02-15T05:53:29;14.90;;;8.80;;
11267;SDS011;49397;47.474;9.416;2023-02-15T05:55:57;13.60;;;8.60;;
11267;SDS011;49397;47.474;9.416;2023-02-15T05:58:26;13.77;;;7.33;;
11267;SDS011;49397;47.474;9.416;2023-02-15T06:00:52;12.43;;;8.13;;
11267;SDS011;49397;47.474;9.416;2023-02-15T06:03:18;14.60;;;9.10;;
11267;SDS011;49397;47.474;9.416;2023-02-15T06:05:44;14.00;;;8.10;;
11267;SDS011;49397;47.474;9.416;2023-02-15T06:08:09;14.20;;;9.20;;
11267;SDS011;49397;47.474;9.416;2023-02-15T06:10:35;14.67;;;9.13;;
11267;SDS011;49397;47.474;9.416;2023-02-15T06:13:00;17.00;;;10.20;;
11267;SDS011;49397;47.474;9.416;2023-02-15T06:15:26;14.90;;;9.40;;
11267;SDS011;49397;47.474;9.416;2023-02-15T06:17:51;15.23;;;9.40;;
11267;SDS011;49397;47.474;9.416;2023-02-15T06:20:17;14.77;;;8.80;;
11267;SDS011;49397;47.474;9.416;2023-02-15T06:22:42;17.80;;;8.87;;
11267;SDS011;49397;47.474;9.416;2023-02-15T06:25:08;15.37;;;8.17;;
11267;SDS011;49397;47.474;9.416;2023-02-15T06:27:36;13.93;;;8.67;;
11267;SDS011;49397;47.474;9.416;2023-02-15T06:30:02;12.10;;;8.03;;
11267;SDS011;49397;47.474;9.416;2023-02-15T06:32:31;13.97;;;7.87;;
11267;SDS011;49397;47.474;9.416;2023-02-15T06:34:56;11.87;;;7.17;;
11267;SDS011;49397;47.474;9.416;2023-02-15T06:37:22;14.50;;;8.43;;
11267;SDS011;49397;47.474;9.416;2023-02-15T06:39:48;18.10;;;9.00;;
11267;SDS011;49397;47.474;9.416;2023-02-15T06:42:13;16.17;;;8.87;;
11267;SDS011;49397;47.474;9.416;2023-02-15T06:44:40;15.97;;;9.30;;
11267;SDS011;49397;47.474;9.416;2023-02-15T06:47:05;28.30;;;9.37;;
11267;SDS011;49397;47.474;9.416;2023-02-15T06:49:31;14.50;;;8.90;;
11267;SDS011;49397;47.474;9.416;2023-02-15T06:51:56;17.10;;;7.40;;
11267;SDS011;49397;47.474;9.416;2023-02-15T06:54:22;13.87;;;8.43;;
11267;SDS011;49397;47.474;9.416;2023-02-15T06:56:47;20.47;;;8.80;;
11267;SDS011;49397;47.474;9.416;2023-02-15T06:59:13;25.57;;;9.03;;
11267;SDS011;49397;47.474;9.416;2023-02-15T07:01:38;14.63;;;8.30;;
11267;SDS011;49397;47.474;9.416;2023-02-15T07:04:04;14.97;;;8.00;;
11267;SDS011;49397;47.474;9.416;2023-02-15T07:06:33;13.20;;;8.40;;
11267;SDS011;49397;47.474;9.416;2023-02-15T07:08:58;21.90;;;8.43;;
11267;SDS011;49397;47.474;9.416;2023-02-15T07:11:25;30.93;;;7.80;;
11267;SDS011;49397;47.474;9.416;2023-02-15T07:14:09;14.07;;;8.80;;
11267;SDS011;49397;47.474;9.416;2023-02-15T07:16:34;32.90;;;9.03;;
11267;SDS011;49397;47.474;9.416;2023-02-15T07:19:00;32.50;;;10.03;;
11267;SDS011;49397;47.474;9.416;2023-02-15T07:21:25;35.70;;;9.10;;
11267;SDS011;49397;47.474;9.416;2023-02-15T07:23:51;17.93;;;9.43;;
11267;SDS011;49397;47.474;9.416;2023-02-15T07:26:16;23.70;;;9.37;;
11267;SDS011;49397;47.474;9.416;2023-02-15T07:28:42;35.50;;;10.13;;
11267;SDS011;49397;47.474;9.416;2023-02-15T07:31:07;21.73;;;10.33;;
11267;SDS011;49397;47.474;9.416;2023-02-15T07:33:33;80.53;;;13.33;;
11267;SDS011;49397;47.474;9.416;2023-02-15T07:36:00;42.90;;;9.57;;
11267;SDS011;49397;47.474;9.416;2023-02-15T07:38:29;22.67;;;9.87;;
11267;SDS011;49397;47.474;9.416;2023-02-15T07:41:00;21.90;;;9.23;;
11267;SDS011;49397;47.474;9.416;2023-02-15T07:43:27;60.47;;;11.97;;
11267;SDS011;49397;47.474;9.416;2023-02-15T07:45:54;33.73;;;11.00;;
11267;SDS011;49397;47.474;9.416;2023-02-15T07:48:24;62.50;;;11.23;;
11267;SDS011;49397;47.474;9.416;2023-02-15T07:50:49;26.00;;;10.43;;
11267;SDS011;49397;47.474;9.416;2023-02-15T07:53:15;49.37;;;12.67;;
11267;SDS011;49397;47.474;9.416;2023-02-15T07:55:40;127.63;;;17.07;;
11267;SDS011;49397;47.474;9.416;2023-02-15T07:58:05;49.47;;;13.17;;
11267;SDS011;49397;47.474;9.416;2023-02-15T08:00:31;81.90;;;14.40;;
11267;SDS011;49397;47.474;9.416;2023-02-15T08:03:17;81.93;;;12.37;;
11267;SDS011;49397;47.474;9.416;2023-02-15T08:05:43;53.03;;;12.57;;
11267;SDS011;49397;47.474;9.416;2023-02-15T08:08:10;52.20;;;12.13;;
11267;SDS011;49397;47.474;9.416;2023-02-15T08:13:50;18.60;;;10.00;;
11267;SDS011;49397;47.474;9.416;2023-02-15T08:16:21;20.20;;;10.63;;
11267;SDS011;49397;47.474;9.416;2023-02-15T08:19:08;21.60;;;9.57;;
11267;SDS011;49397;47.474;9.416;2023-02-15T08:21:38;31.33;;;10.13;;
11267;SDS011;49397;47.474;9.416;2023-02-15T08:24:05;23.03;;;11.50;;
11267;SDS011;49397;47.474;9.416;2023-02-15T08:26:32;17.97;;;9.70;;
11267;SDS011;49397;47.474;9.416;2023-02-15T08:28:58;28.10;;;10.67;;
11267;SDS011;49397;47.474;9.416;2023-02-15T08:31:24;37.37;;;10.57;;
11267;SDS011;49397;47.474;9.416;2023-02-15T08:33:51;47.23;;;11.43;;
11267;SDS011;49397;47.474;9.416;2023-02-15T08:36:19;41.50;;;11.37;;
11267;SDS011;49397;47.474;9.416;2023-02-15T08:38:46;67.90;;;11.90;;
11267;SDS011;49397;47.474;9.416;2023-02-15T08:41:22;33.83;;;10.37;;
11267;SDS011;49397;47.474;9.416;2023-02-15T08:43:50;20.07;;;10.07;;
11267;SDS011;49397;47.474;9.416;2023-02-15T08:46:18;23.87;;;11.20;;
11267;SDS011;49397;47.474;9.416;2023-02-15T08:48:45;25.17;;;10.90;;
11267;SDS011;49397;47.474;9.416;2023-02-15T08:51:12;32.50;;;12.47;;
11267;SDS011;49397;47.474;9.416;2023-02-15T08:53:40;19.50;;;11.03;;
11267;SDS011;49397;47.474;9.416;2023-02-15T08:56:07;31.77;;;12.30;;
11267;SDS011;49397;47.474;9.416;2023-02-15T08:58:34;26.93;;;11.87;;
11267;SDS011;49397;47.474;9.416;2023-02-15T09:01:00;41.47;;;11.53;;
11267;SDS011;49397;47.474;9.416;2023-02-15T09:03:29;33.53;;;9.93;;
11267;SDS011;49397;47.474;9.416;2023-02-15T09:05:58;31.50;;;10.50;;
11267;SDS011;49397;47.474;9.416;2023-02-15T09:08:25;34.67;;;11.30;;
11267;SDS011;49397;47.474;9.416;2023-02-15T09:10:51;22.43;;;10.80;;
11267;SDS011;49397;47.474;9.416;2023-02-15T09:13:16;41.20;;;10.73;;
11267;SDS011;49397;47.474;9.416;2023-02-15T09:15:42;23.90;;;11.27;;
11267;SDS011;49397;47.474;9.416;2023-02-15T09:18:07;34.93;;;11.73;;
11267;SDS011;49397;47.474;9.416;2023-02-15T09:20:36;20.87;;;10.47;;
11267;SDS011;49397;47.474;9.416;2023-02-15T09:23:01;30.97;;;11.93;;
11267;SDS011;49397;47.474;9.416;2023-02-15T09:25:27;23.93;;;11.20;;
11267;SDS011;49397;47.474;9.416;2023-02-15T09:27:53;22.43;;;10.77;;
11267;SDS011;49397;47.474;9.416;2023-02-15T09:30:19;21.63;;;11.30;;
11267;SDS011;49397;47.474;9.416;2023-02-15T09:32:44;21.53;;;11.13;;
11267;SDS011;49397;47.474;9.416;2023-02-15T09:35:13;24.47;;;10.73;;
11267;SDS011;49397;47.474;9.416;2023-02-15T09:37:39;23.40;;;11.63;;
11267;SDS011;49397;47.474;9.416;2023-02-15T09:40:04;22.63;;;12.27;;
11267;SDS011;49397;47.474;9.416;2023-02-15T09:45:13;25.03;;;12.10;;
11267;SDS011;49397;47.474;9.416;2023-02-15T10:02:15;30.33;;;14.77;;
11267;SDS011;49397;47.474;9.416;2023-02-15T10:07:49;25.47;;;13.43;;
11267;SDS011;49397;47.474;9.416;2023-02-15T10:13:31;28.60;;;12.73;;
11267;SDS011;49397;47.474;9.416;2023-02-15T10:16:24;38.80;;;16.80;;
11267;SDS011;49397;47.474;9.416;2023-02-15T10:21:49;97.23;;;16.13;;
11267;SDS011;49397;47.474;9.416;2023-02-15T10:24:24;25.60;;;14.40;;
11267;SDS011;49397;47.474;9.416;2023-02-15T10:26:59;28.97;;;13.33;;
11267;SDS011;49397;47.474;9.416;2023-02-15T10:29:36;58.57;;;15.50;;
11267;SDS011;49397;47.474;9.416;2023-02-15T10:37:39;39.33;;;15.20;;
11267;SDS011;49397;47.474;9.416;2023-02-15T10:46:23;34.33;;;14.60;;
11267;SDS011;49397;47.474;9.416;2023-02-15T10:49:23;28.23;;;13.97;;
11267;SDS011;49397;47.474;9.416;2023-02-15T11:00:07;25.20;;;13.97;;
11267;SDS011;49397;47.474;9.416;2023-02-15T11:07:52;35.37;;;14.10;;
11267;SDS011;49397;47.474;9.416;2023-02-15T11:13:11;67.60;;;15.10;;
11267;SDS011;49397;47.474;9.416;2023-02-15T11:15:42;26.40;;;13.40;;
11267;SDS011;49397;47.474;9.416;2023-02-15T11:18:16;50.60;;;16.00;;
11267;SDS011;49397;47.474;9.416;2023-02-15T11:20:59;30.00;;;14.33;;
11267;SDS011;49397;47.474;9.416;2023-02-15T11:23:29;34.73;;;14.93;;
11267;SDS011;49397;47.474;9.416;2023-02-15T11:26:02;28.33;;;14.80;;
11267;SDS011;49397;47.474;9.416;2023-02-15T11:28:31;27.67;;;15.33;;
11267;SDS011;49397;47.474;9.416;2023-02-15T11:31:01;30.03;;;14.53;;
11267;SDS011;49397;47.474;9.416;2023-02-15T11:33:49;27.03;;;13.73;;
11267;SDS011;49397;47.474;9.416;2023-02-15T11:36:24;26.93;;;13.83;;
11267;SDS011;49397;47.474;9.416;2023-02-15T11:38:58;31.77;;;14.90;;
11267;SDS011;49397;47.474;9.416;2023-02-15T11:41:28;33.50;;;15.63;;
11267;SDS011;49397;47.474;9.416;2023-02-15T11:46:32;39.23;;;16.23;;
11267;SDS011;49397;47.474;9.416;2023-02-15T11:48:58;26.60;;;14.80;;
11267;SDS011;49397;47.474;9.416;2023-02-15T11:51:24;29.50;;;14.40;;
11267;SDS011;49397;47.474;9.416;2023-02-15T11:53:52;28.67;;;15.40;;
11267;SDS011;49397;47.474;9.416;2023-02-15T11:56:20;29.13;;;14.47;;
11267;SDS011;49397;47.474;9.416;2023-02-15T11:58:50;31.20;;;14.67;;
11267;SDS011;49397;47.474;9.416;2023-02-15T12:06:48;30.33;;;14.20;;
11267;SDS011;49397;47.474;9.416;2023-02-15T12:12:41;31.53;;;14.33;;
11267;SDS011;49397;47.474;9.416;2023-02-15T12:15:07;30.70;;;15.30;;
11267;SDS011;49397;47.474;9.416;2023-02-15T12:22:51;27.67;;;13.27;;
11267;SDS011;49397;47.474;9.416;2023-02-15T12:25:24;26.83;;;13.53;;
11267;SDS011;49397;47.474;9.416;2023-02-15T12:27:54;26.70;;;13.30;;
11267;SDS011;49397;47.474;9.416;2023-02-15T12:30:25;27.00;;;13.70;;
11267;SDS011;49397;47.474;9.416;2023-02-15T12:32:57;28.90;;;15.20;;
11267;SDS011;49397;47.474;9.416;2023-02-15T12:35:33;28.27;;;15.50;;
11267;SDS011;49397;47.474;9.416;2023-02-15T12:40:35;41.50;;;21.00;;
11267;SDS011;49397;47.474;9.416;2023-02-15T12:43:02;38.77;;;19.53;;
11267;SDS011;49397;47.474;9.416;2023-02-15T12:45:34;34.37;;;17.83;;
11267;SDS011;49397;47.474;9.416;2023-02-15T12:48:20;37.50;;;18.20;;
11267;SDS011;49397;47.474;9.416;2023-02-15T12:50:47;39.37;;;19.33;;
11267;SDS011;49397;47.474;9.416;2023-02-15T12:55:53;42.03;;;20.57;;
11267;SDS011;49397;47.474;9.416;2023-02-15T12:58:23;32.73;;;16.37;;
11267;SDS011;49397;47.474;9.416;2023-02-15T13:06:30;45.03;;;24.33;;
11267;SDS011;49397;47.474;9.416;2023-02-15T13:09:06;52.83;;;26.07;;
11267;SDS011;49397;47.474;9.416;2023-02-15T13:11:40;49.93;;;26.20;;
11267;SDS011;49397;47.474;9.416;2023-02-15T13:14:18;55.43;;;27.00;;
11267;SDS011;49397;47.474;9.416;2023-02-15T13:16:47;68.87;;;33.47;;
11267;SDS011;49397;47.474;9.416;2023-02-15T13:19:20;72.30;;;35.20;;
11267;SDS011;49397;47.474;9.416;2023-02-15T13:21:54;70.50;;;36.23;;
11267;SDS011;49397;47.474;9.416;2023-02-15T13:24:25;59.47;;;31.57;;
11267;SDS011;49397;47.474;9.416;2023-02-15T13:26:55;60.57;;;29.77;;
11267;SDS011;49397;47.474;9.416;2023-02-15T13:31:48;63.73;;;31.40;;
11267;SDS011;49397;47.474;9.416;2023-02-15T13:34:37;55.33;;;27.43;;
11267;SDS011;49397;47.474;9.416;2023-02-15T13:37:19;40.80;;;21.97;;
11267;SDS011;49397;47.474;9.416;2023-02-15T13:40:12;43.57;;;22.67;;
11267;SDS011;49397;47.474;9.416;2023-02-15T13:51:13;44.30;;;23.93;;
11267;SDS011;49397;47.474;9.416;2023-02-15T13:56:40;44.40;;;21.80;;
11267;SDS011;49397;47.474;9.416;2023-02-15T14:01:55;34.73;;;20.53;;
11267;SDS011;49397;47.474;9.416;2023-02-15T14:07:24;39.23;;;20.37;;
11267;SDS011;49397;47.474;9.416;2023-02-15T14:16:12;35.73;;;19.37;;
11267;SDS011;49397;47.474;9.416;2023-02-15T14:18:57;32.80;;;16.60;;
11267;SDS011;49397;47.474;9.416;2023-02-15T14:21:41;29.17;;;15.40;;
11267;SDS011;49397;47.474;9.416;2023-02-15T14:27:18;20.07;;;13.23;;
11267;SDS011;49397;47.474;9.416;2023-02-15T14:29:57;27.03;;;14.83;;
11267;SDS011;49397;47.474;9.416;2023-02-15T14:32:45;28.13;;;15.60;;
11267;SDS011;49397;47.474;9.416;2023-02-15T14:35:17;32.17;;;18.13;;
11267;SDS011;49397;47.474;9.416;2023-02-15T14:37:58;30.13;;;16.93;;
11267;SDS011;49397;47.474;9.416;2023-02-15T14:48:31;25.40;;;15.87;;
11267;SDS011;49397;47.474;9.416;2023-02-15T14:51:03;25.23;;;15.00;;
11267;SDS011;49397;47.474;9.416;2023-02-15T14:58:34;20.43;;;13.43;;
11267;SDS011;49397;47.474;9.416;2023-02-15T15:01:08;25.20;;;14.87;;
11267;SDS011;49397;47.474;9.416;2023-02-15T15:03:35;23.63;;;15.10;;
11267;SDS011;49397;47.474;9.416;2023-02-15T15:06:02;28.20;;;17.40;;
11267;SDS011;49397;47.474;9.416;2023-02-15T15:08:33;22.77;;;15.07;;
11267;SDS011;49397;47.474;9.416;2023-02-15T15:13:56;24.37;;;15.27;;
11267;SDS011;49397;47.474;9.416;2023-02-15T15:16:27;22.50;;;14.83;;
11267;SDS011;49397;47.474;9.416;2023-02-15T15:19:14;24.60;;;15.07;;
11267;SDS011;49397;47.474;9.416;2023-02-15T15:22:23;24.30;;;15.00;;
11267;SDS011;49397;47.474;9.416;2023-02-15T15:24:51;21.80;;;15.40;;
11267;SDS011;49397;47.474;9.416;2023-02-15T15:30:01;20.20;;;13.53;;
11267;SDS011;49397;47.474;9.416;2023-02-15T15:32:27;23.97;;;15.00;;
11267;SDS011;49397;47.474;9.416;2023-02-15T15:37:38;21.10;;;13.57;;
11267;SDS011;49397;47.474;9.416;2023-02-15T15:43:10;21.53;;;13.43;;
11267;SDS011;49397;47.474;9.416;2023-02-15T15:48:35;21.83;;;14.07;;
11267;SDS011;49397;47.474;9.416;2023-02-15T15:51:09;20.33;;;12.80;;
11267;SDS011;49397;47.474;9.416;2023-02-15T15:53:40;20.50;;;14.00;;
11267;SDS011;49397;47.474;9.416;2023-02-15T15:56:12;21.83;;;13.77;;
11267;SDS011;49397;47.474;9.416;2023-02-15T15:58:44;21.20;;;13.70;;
11267;SDS011;49397;47.474;9.416;2023-02-15T16:01:22;23.77;;;14.37;;
11267;SDS011;49397;47.474;9.416;2023-02-15T16:03:52;25.43;;;15.63;;
11267;SDS011;49397;47.474;9.416;2023-02-15T16:09:09;25.80;;;15.47;;
11267;SDS011;49397;47.474;9.416;2023-02-15T16:11:46;23.53;;;13.87;;
11267;SDS011;49397;47.474;9.416;2023-02-15T16:16:53;25.33;;;16.03;;
11267;SDS011;49397;47.474;9.416;2023-02-15T16:19:23;24.90;;;15.07;;
11267;SDS011;49397;47.474;9.416;2023-02-15T16:21:52;25.67;;;14.87;;
11267;SDS011;49397;47.474;9.416;2023-02-15T16:24:22;24.93;;;15.23;;
11267;SDS011;49397;47.474;9.416;2023-02-15T16:29:29;29.97;;;16.17;;
11267;SDS011;49397;47.474;9.416;2023-02-15T16:31:58;26.83;;;15.20;;
11267;SDS011;49397;47.474;9.416;2023-02-15T16:34:27;25.87;;;15.13;;
11267;SDS011;49397;47.474;9.416;2023-02-15T16:37:19;27.63;;;15.60;;
11267;SDS011;49397;47.474;9.416;2023-02-15T16:39:48;24.37;;;15.57;;
11267;SDS011;49397;47.474;9.416;2023-02-15T16:42:15;28.80;;;13.97;;
11267;SDS011;49397;47.474;9.416;2023-02-15T16:44:45;23.93;;;13.83;;
11267;SDS011;49397;47.474;9.416;2023-02-15T16:47:20;24.90;;;14.10;;
11267;SDS011;49397;47.474;9.416;2023-02-15T16:49:49;22.53;;;13.37;;
11267;SDS011;49397;47.474;9.416;2023-02-15T16:52:22;27.53;;;15.60;;
11267;SDS011;49397;47.474;9.416;2023-02-15T16:54:50;21.93;;;12.93;;
11267;SDS011;49397;47.474;9.416;2023-02-15T16:57:23;23.77;;;15.37;;
11267;SDS011;49397;47.474;9.416;2023-02-15T16:59:52;24.10;;;14.87;;
11267;SDS011;49397;47.474;9.416;2023-02-15T17:02:29;25.90;;;15.30;;
11267;SDS011;49397;47.474;9.416;2023-02-15T17:05:16;29.87;;;15.30;;
11267;SDS011;49397;47.474;9.416;2023-02-15T17:08:27;23.17;;;14.43;;
11267;SDS011;49397;47.474;9.416;2023-02-15T17:13:28;25.87;;;14.73;;
11267;SDS011;49397;47.474;9.416;2023-02-15T17:18:23;26.33;;;14.47;;
11267;SDS011;49397;47.474;9.416;2023-02-15T17:20:50;22.10;;;13.13;;
11267;SDS011;49397;47.474;9.416;2023-02-15T17:23:32;24.77;;;14.13;;
11267;SDS011;49397;47.474;9.416;2023-02-15T17:26:02;22.87;;;13.90;;
11267;SDS011;49397;47.474;9.416;2023-02-15T17:28:44;27.43;;;15.60;;
11267;SDS011;49397;47.474;9.416;2023-02-15T17:31:12;25.17;;;15.17;;
11267;SDS011;49397;47.474;9.416;2023-02-15T17:33:41;27.27;;;14.80;;
11267;SDS011;49397;47.474;9.416;2023-02-15T17:41:50;31.77;;;13.87;;
11267;SDS011;49397;47.474;9.416;2023-02-15T17:44:18;28.23;;;14.67;;
11267;SDS011;49397;47.474;9.416;2023-02-15T17:46:43;31.30;;;15.17;;
11267;SDS011;49397;47.474;9.416;2023-02-15T17:49:13;30.13;;;16.23;;
11267;SDS011;49397;47.474;9.416;2023-02-15T17:51:48;30.63;;;15.77;;
11267;SDS011;49397;47.474;9.416;2023-02-15T17:54:14;30.60;;;16.90;;
11267;SDS011;49397;47.474;9.416;2023-02-15T17:56:58;26.57;;;15.23;;